Terminal Aerodrome Forecast
Issued by NWS

Home | Current Version | Previous Version | Text Only | Print | Product List | Glossary On
Versions: 1 2 3 4 5 6 7 8 9 10 11 12 13 14 15 16
000
FTUS44 KTSA 281720
TAFFYV
TAF
KFYV 281720Z 2818/2918 19010KT P6SM BKN025
     FM281900 20010KT P6SM SCT025
     FM290100 VRB02KT P6SM SCT250
     FM290600 00000KT P6SM BKN020
     FM291500 24005KT P6SM BKN030=

USA.gov is the U.S. government's official web portal to all federal, state and local government web resources and services.